sensor_id;sensor_type;location;lat;lon;timestamp;temperature;humidity
24326;DHT22;12448;45.532;5.290;2023-04-15T00:01:07;10.60;92.80
24326;DHT22;12448;45.532;5.290;2023-04-15T00:03:36;11.30;93.10
24326;DHT22;12448;45.532;5.290;2023-04-15T00:06:02;10.50;92.90
24326;DHT22;12448;45.532;5.290;2023-04-15T00:08:28;10.60;93.00
24326;DHT22;12448;45.532;5.290;2023-04-15T00:10:57;10.60;93.00
24326;DHT22;12448;45.532;5.290;2023-04-15T00:13:34;10.60;93.00
24326;DHT22;12448;45.532;5.290;2023-04-15T00:16:00;10.60;93.10
24326;DHT22;12448;45.532;5.290;2023-04-15T00:18:39;10.50;93.10
24326;DHT22;12448;45.532;5.290;2023-04-15T00:21:13;10.60;93.40
24326;DHT22;12448;45.532;5.290;2023-04-15T00:23:39;10.50;93.20
24326;DHT22;12448;45.532;5.290;2023-04-15T00:26:05;10.50;93.20
24326;DHT22;12448;45.532;5.290;2023-04-15T00:28:34;10.60;93.30
24326;DHT22;12448;45.532;5.290;2023-04-15T00:31:09;10.60;93.30
24326;DHT22;12448;45.532;5.290;2023-04-15T00:33:35;10.60;93.30
24326;DHT22;12448;45.532;5.290;2023-04-15T00:36:05;10.70;93.40
24326;DHT22;12448;45.532;5.290;2023-04-15T00:38:38;10.60;93.40
24326;DHT22;12448;45.532;5.290;2023-04-15T00:41:04;10.60;93.50
24326;DHT22;12448;45.532;5.290;2023-04-15T00:43:30;10.60;93.60
24326;DHT22;12448;45.532;5.290;2023-04-15T00:45:58;10.50;93.70
24326;DHT22;12448;45.532;5.290;2023-04-15T00:48:23;10.50;93.80
24326;DHT22;12448;45.532;5.290;2023-04-15T00:50:50;10.60;93.90
24326;DHT22;12448;45.532;5.290;2023-04-15T00:53:16;10.50;93.90
24326;DHT22;12448;45.532;5.290;2023-04-15T00:55:42;10.60;93.90
24326;DHT22;12448;45.532;5.290;2023-04-15T00:58:13;10.70;94.00
24326;DHT22;12448;45.532;5.290;2023-04-15T01:00:40;11.20;94.20
24326;DHT22;12448;45.532;5.290;2023-04-15T01:03:13;10.50;94.00
24326;DHT22;12448;45.532;5.290;2023-04-15T01:05:39;10.90;94.10
24326;DHT22;12448;45.532;5.290;2023-04-15T01:08:08;10.70;94.10
24326;DHT22;12448;45.532;5.290;2023-04-15T01:10:34;10.50;94.10
24326;DHT22;12448;45.532;5.290;2023-04-15T01:13:00;10.50;94.20
24326;DHT22;12448;45.532;5.290;2023-04-15T01:15:27;10.50;94.20
24326;DHT22;12448;45.532;5.290;2023-04-15T01:17:58;10.50;94.30
24326;DHT22;12448;45.532;5.290;2023-04-15T01:20:24;10.50;94.40
24326;DHT22;12448;45.532;5.290;2023-04-15T01:22:50;10.90;94.50
24326;DHT22;12448;45.532;5.290;2023-04-15T01:25:33;10.50;94.40
24326;DHT22;12448;45.532;5.290;2023-04-15T01:27:59;10.50;94.50
24326;DHT22;12448;45.532;5.290;2023-04-15T01:30:38;10.60;94.60
24326;DHT22;12448;45.532;5.290;2023-04-15T01:33:03;10.50;94.90
24326;DHT22;12448;45.532;5.290;2023-04-15T01:35:35;10.60;94.60
24326;DHT22;12448;45.532;5.290;2023-04-15T01:38:10;10.30;94.60
24326;DHT22;12448;45.532;5.290;2023-04-15T01:40:36;10.50;94.70
24326;DHT22;12448;45.532;5.290;2023-04-15T01:43:02;10.50;94.80
24326;DHT22;12448;45.532;5.290;2023-04-15T01:45:28;10.60;94.80
24326;DHT22;12448;45.532;5.290;2023-04-15T01:47:54;11.10;95.00
24326;DHT22;12448;45.532;5.290;2023-04-15T01:50:20;10.50;94.80
24326;DHT22;12448;45.532;5.290;2023-04-15T01:52:58;10.50;94.90
24326;DHT22;12448;45.532;5.290;2023-04-15T01:55:23;10.50;94.90
24326;DHT22;12448;45.532;5.290;2023-04-15T01:57:49;10.40;94.90
24326;DHT22;12448;45.532;5.290;2023-04-15T02:00:24;10.60;95.00
24326;DHT22;12448;45.532;5.290;2023-04-15T02:02:59;10.50;95.00
24326;DHT22;12448;45.532;5.290;2023-04-15T02:05:37;10.60;95.00
24326;DHT22;12448;45.532;5.290;2023-04-15T02:08:02;10.50;95.00
24326;DHT22;12448;45.532;5.290;2023-04-15T02:10:28;10.50;95.00
24326;DHT22;12448;45.532;5.290;2023-04-15T02:12:56;10.50;95.00
24326;DHT22;12448;45.532;5.290;2023-04-15T02:15:22;10.50;95.00
24326;DHT22;12448;45.532;5.290;2023-04-15T02:17:51;10.60;95.00
24326;DHT22;12448;45.532;5.290;2023-04-15T02:20:19;11.10;95.10
24326;DHT22;12448;45.532;5.290;2023-04-15T02:22:46;10.50;94.90
24326;DHT22;12448;45.532;5.290;2023-04-15T02:25:13;10.50;94.90
24326;DHT22;12448;45.532;5.290;2023-04-15T02:27:48;10.50;94.90
24326;DHT22;12448;45.532;5.290;2023-04-15T02:30:21;10.50;94.90
24326;DHT22;12448;45.532;5.290;2023-04-15T02:32:55;10.50;94.90
24326;DHT22;12448;45.532;5.290;2023-04-15T02:35:27;10.50;95.00
24326;DHT22;12448;45.532;5.290;2023-04-15T02:38:02;10.50;95.00
24326;DHT22;12448;45.532;5.290;2023-04-15T02:40:31;10.50;94.90
24326;DHT22;12448;45.532;5.290;2023-04-15T02:43:00;10.70;95.00
24326;DHT22;12448;45.532;5.290;2023-04-15T02:45:34;10.50;94.90
24326;DHT22;12448;45.532;5.290;2023-04-15T02:48:00;10.50;94.90
24326;DHT22;12448;45.532;5.290;2023-04-15T02:50:37;10.50;94.90
24326;DHT22;12448;45.532;5.290;2023-04-15T02:53:06;10.30;94.80
24326;DHT22;12448;45.532;5.290;2023-04-15T02:55:34;10.50;94.90
24326;DHT22;12448;45.532;5.290;2023-04-15T02:58:00;10.50;95.00
24326;DHT22;12448;45.532;5.290;2023-04-15T03:00:26;10.50;95.00
24326;DHT22;12448;45.532;5.290;2023-04-15T03:02:57;10.50;95.00
24326;DHT22;12448;45.532;5.290;2023-04-15T03:05:23;11.00;95.10
24326;DHT22;12448;45.532;5.290;2023-04-15T03:07:50;10.50;95.00
24326;DHT22;12448;45.532;5.290;2023-04-15T03:10:22;10.50;95.00
24326;DHT22;12448;45.532;5.290;2023-04-15T03:12:51;10.50;95.10
24326;DHT22;12448;45.532;5.290;2023-04-15T03:15:16;10.50;95.10
24326;DHT22;12448;45.532;5.290;2023-04-15T03:17:42;10.40;95.10
24326;DHT22;12448;45.532;5.290;2023-04-15T03:20:08;10.50;95.20
24326;DHT22;12448;45.532;5.290;2023-04-15T03:22:45;10.50;95.20
24326;DHT22;12448;45.532;5.290;2023-04-15T03:25:11;10.70;95.30
24326;DHT22;12448;45.532;5.290;2023-04-15T03:27:40;10.40;95.20
24326;DHT22;12448;45.532;5.290;2023-04-15T03:30:07;10.50;95.20
24326;DHT22;12448;45.532;5.290;2023-04-15T03:32:33;10.50;95.20
24326;DHT22;12448;45.532;5.290;2023-04-15T03:34:59;10.50;95.20
24326;DHT22;12448;45.532;5.290;2023-04-15T03:37:25;10.50;95.20
24326;DHT22;12448;45.532;5.290;2023-04-15T03:39:50;10.60;95.30
24326;DHT22;12448;45.532;5.290;2023-04-15T03:42:16;10.50;95.30
24326;DHT22;12448;45.532;5.290;2023-04-15T03:44:42;10.50;95.30
24326;DHT22;12448;45.532;5.290;2023-04-15T03:47:24;10.70;95.40
24326;DHT22;12448;45.532;5.290;2023-04-15T03:49:50;10.50;95.30
24326;DHT22;12448;45.532;5.290;2023-04-15T03:52:15;10.50;95.40
24326;DHT22;12448;45.532;5.290;2023-04-15T03:54:41;10.50;95.40
24326;DHT22;12448;45.532;5.290;2023-04-15T03:57:06;10.50;95.40
24326;DHT22;12448;45.532;5.290;2023-04-15T03:59:35;10.50;95.40
24326;DHT22;12448;45.532;5.290;2023-04-15T04:02:01;10.50;95.40
24326;DHT22;12448;45.532;5.290;2023-04-15T04:04:27;10.50;95.40
24326;DHT22;12448;45.532;5.290;2023-04-15T04:06:53;10.50;95.50
24326;DHT22;12448;45.532;5.290;2023-04-15T04:09:18;10.50;95.50
24326;DHT22;12448;45.532;5.290;2023-04-15T04:11:44;10.50;95.50
24326;DHT22;12448;45.532;5.290;2023-04-15T04:14:10;10.50;95.50
24326;DHT22;12448;45.532;5.290;2023-04-15T04:16:36;10.50;95.50
24326;DHT22;12448;45.532;5.290;2023-04-15T04:19:01;10.60;95.60
24326;DHT22;12448;45.532;5.290;2023-04-15T04:21:27;10.50;95.60
24326;DHT22;12448;45.532;5.290;2023-04-15T04:23:53;10.70;95.60
24326;DHT22;12448;45.532;5.290;2023-04-15T04:26:23;10.50;95.50
24326;DHT22;12448;45.532;5.290;2023-04-15T04:28:49;10.50;95.60
24326;DHT22;12448;45.532;5.290;2023-04-15T04:31:15;10.60;95.60
24326;DHT22;12448;45.532;5.290;2023-04-15T04:33:41;10.80;95.80
24326;DHT22;12448;45.532;5.290;2023-04-15T04:36:07;10.50;95.70
24326;DHT22;12448;45.532;5.290;2023-04-15T04:38:40;10.50;95.80
24326;DHT22;12448;45.532;5.290;2023-04-15T04:41:06;10.80;95.80
24326;DHT22;12448;45.532;5.290;2023-04-15T04:43:32;10.50;95.80
24326;DHT22;12448;45.532;5.290;2023-04-15T04:45:57;10.50;95.80
24326;DHT22;12448;45.532;5.290;2023-04-15T04:48:23;10.50;95.80
24326;DHT22;12448;45.532;5.290;2023-04-15T04:50:48;10.90;96.00
24326;DHT22;12448;45.532;5.290;2023-04-15T04:53:14;10.50;95.90
24326;DHT22;12448;45.532;5.290;2023-04-15T04:55:40;10.60;96.00
24326;DHT22;12448;45.532;5.290;2023-04-15T04:58:06;11.00;96.10
24326;DHT22;12448;45.532;5.290;2023-04-15T05:00:32;10.70;96.00
24326;DHT22;12448;45.532;5.290;2023-04-15T05:02:57;10.80;96.00
24326;DHT22;12448;45.532;5.290;2023-04-15T05:05:23;10.50;96.00
24326;DHT22;12448;45.532;5.290;2023-04-15T05:07:52;10.50;96.00
24326;DHT22;12448;45.532;5.290;2023-04-15T05:10:17;10.50;96.00
24326;DHT22;12448;45.532;5.290;2023-04-15T05:12:43;10.50;96.00
24326;DHT22;12448;45.532;5.290;2023-04-15T05:15:16;10.50;96.00
24326;DHT22;12448;45.532;5.290;2023-04-15T05:17:42;10.50;96.00
24326;DHT22;12448;45.532;5.290;2023-04-15T05:20:07;10.70;96.00
24326;DHT22;12448;45.532;5.290;2023-04-15T05:22:34;10.50;96.00
24326;DHT22;12448;45.532;5.290;2023-04-15T05:24:59;10.50;96.00
24326;DHT22;12448;45.532;5.290;2023-04-15T05:27:30;10.60;96.00
24326;DHT22;12448;45.532;5.290;2023-04-15T05:29:56;10.50;95.90
24326;DHT22;12448;45.532;5.290;2023-04-15T05:32:22;10.60;95.90
24326;DHT22;12448;45.532;5.290;2023-04-15T05:34:47;10.70;95.90
24326;DHT22;12448;45.532;5.290;2023-04-15T05:37:16;10.50;95.90
24326;DHT22;12448;45.532;5.290;2023-04-15T05:39:42;10.50;95.90
24326;DHT22;12448;45.532;5.290;2023-04-15T05:42:08;10.50;95.90
24326;DHT22;12448;45.532;5.290;2023-04-15T05:44:33;10.50;95.90
24326;DHT22;12448;45.532;5.290;2023-04-15T05:46:59;10.50;95.90
24326;DHT22;12448;45.532;5.290;2023-04-15T05:49:28;10.50;95.90
24326;DHT22;12448;45.532;5.290;2023-04-15T05:51:54;10.70;96.00
24326;DHT22;12448;45.532;5.290;2023-04-15T05:54:23;10.50;95.90
24326;DHT22;12448;45.532;5.290;2023-04-15T05:56:49;10.60;95.90
24326;DHT22;12448;45.532;5.290;2023-04-15T05:59:15;10.50;95.90
24326;DHT22;12448;45.532;5.290;2023-04-15T06:01:41;10.60;95.90
24326;DHT22;12448;45.532;5.290;2023-04-15T06:04:07;10.70;95.90
24326;DHT22;12448;45.532;5.290;2023-04-15T06:06:32;10.50;95.90
24326;DHT22;12448;45.532;5.290;2023-04-15T06:08:59;10.70;95.90
24326;DHT22;12448;45.532;5.290;2023-04-15T06:11:25;10.60;95.80
24326;DHT22;12448;45.532;5.290;2023-04-15T06:13:51;10.80;95.80
24326;DHT22;12448;45.532;5.290;2023-04-15T06:16:25;10.60;95.80
24326;DHT22;12448;45.532;5.290;2023-04-15T06:19:16;10.70;95.80
24326;DHT22;12448;45.532;5.290;2023-04-15T06:22:08;10.70;95.80
24326;DHT22;12448;45.532;5.290;2023-04-15T06:24:45;10.70;95.80
24326;DHT22;12448;45.532;5.290;2023-04-15T06:27:16;10.70;95.80
24326;DHT22;12448;45.532;5.290;2023-04-15T06:29:42;10.60;95.80
24326;DHT22;12448;45.532;5.290;2023-04-15T06:32:14;10.60;95.80
24326;DHT22;12448;45.532;5.290;2023-04-15T06:34:51;10.80;95.90
24326;DHT22;12448;45.532;5.290;2023-04-15T06:37:17;10.40;95.90
24326;DHT22;12448;45.532;5.290;2023-04-15T06:39:45;10.30;96.10
24326;DHT22;12448;45.532;5.290;2023-04-15T06:42:15;10.10;96.30
24326;DHT22;12448;45.532;5.290;2023-04-15T06:44:41;10.10;97.10
24326;DHT22;12448;45.532;5.290;2023-04-15T06:47:07;9.90;97.80
24326;DHT22;12448;45.532;5.290;2023-04-15T06:49:33;10.30;98.20
24326;DHT22;12448;45.532;5.290;2023-04-15T06:52:03;9.70;95.70
24326;DHT22;12448;45.532;5.290;2023-04-15T06:54:29;8.70;96.20
24326;DHT22;12448;45.532;5.290;2023-04-15T06:56:55;8.40;96.90
24326;DHT22;12448;45.532;5.290;2023-04-15T06:59:21;8.50;97.50
24326;DHT22;12448;45.532;5.290;2023-04-15T07:01:46;8.30;97.60
24326;DHT22;12448;45.532;5.290;2023-04-15T07:04:13;8.70;97.90
24326;DHT22;12448;45.532;5.290;2023-04-15T07:06:41;8.50;98.10
24326;DHT22;12448;45.532;5.290;2023-04-15T07:09:07;8.50;98.60
24326;DHT22;12448;45.532;5.290;2023-04-15T07:11:33;8.50;98.30
24326;DHT22;12448;45.532;5.290;2023-04-15T07:13:58;8.90;98.70
24326;DHT22;12448;45.532;5.290;2023-04-15T07:16:24;8.90;99.00
24326;DHT22;12448;45.532;5.290;2023-04-15T07:18:50;8.60;98.00
24326;DHT22;12448;45.532;5.290;2023-04-15T07:21:16;8.70;98.00
24326;DHT22;12448;45.532;5.290;2023-04-15T07:23:43;8.80;97.80
24326;DHT22;12448;45.532;5.290;2023-04-15T07:26:09;8.90;97.90
24326;DHT22;12448;45.532;5.290;2023-04-15T07:28:35;9.00;97.10
24326;DHT22;12448;45.532;5.290;2023-04-15T07:31:01;9.10;96.90
24326;DHT22;12448;45.532;5.290;2023-04-15T07:33:27;8.90;96.30
24326;DHT22;12448;45.532;5.290;2023-04-15T07:35:52;8.90;96.30
24326;DHT22;12448;45.532;5.290;2023-04-15T07:38:18;8.90;95.70
24326;DHT22;12448;45.532;5.290;2023-04-15T07:40:45;9.30;96.00
24326;DHT22;12448;45.532;5.290;2023-04-15T07:43:11;9.30;95.60
24326;DHT22;12448;45.532;5.290;2023-04-15T07:45:37;9.30;95.90
24326;DHT22;12448;45.532;5.290;2023-04-15T07:48:04;8.90;95.00
24326;DHT22;12448;45.532;5.290;2023-04-15T07:50:36;8.90;95.10
24326;DHT22;12448;45.532;5.290;2023-04-15T07:53:06;9.20;95.10
24326;DHT22;12448;45.532;5.290;2023-04-15T07:55:31;8.80;94.40
24326;DHT22;12448;45.532;5.290;2023-04-15T07:58:00;8.80;94.60
24326;DHT22;12448;45.532;5.290;2023-04-15T08:00:26;8.90;94.50
24326;DHT22;12448;45.532;5.290;2023-04-15T08:02:52;8.90;94.60
24326;DHT22;12448;45.532;5.290;2023-04-15T08:05:18;9.20;94.00
24326;DHT22;12448;45.532;5.290;2023-04-15T08:07:47;8.80;93.60
24326;DHT22;12448;45.532;5.290;2023-04-15T08:10:16;8.80;93.90
24326;DHT22;12448;45.532;5.290;2023-04-15T08:12:44;9.00;94.30
24326;DHT22;12448;45.532;5.290;2023-04-15T08:15:13;9.00;93.50
24326;DHT22;12448;45.532;5.290;2023-04-15T08:17:39;9.50;93.80
24326;DHT22;12448;45.532;5.290;2023-04-15T08:20:08;8.90;93.80
24326;DHT22;12448;45.532;5.290;2023-04-15T08:22:34;9.00;93.90
24326;DHT22;12448;45.532;5.290;2023-04-15T08:24:59;9.10;93.50
24326;DHT22;12448;45.532;5.290;2023-04-15T08:27:25;9.70;93.30
24326;DHT22;12448;45.532;5.290;2023-04-15T08:30:00;9.10;93.40
24326;DHT22;12448;45.532;5.290;2023-04-15T08:32:29;9.00;92.50
24326;DHT22;12448;45.532;5.290;2023-04-15T08:34:54;8.90;92.60
24326;DHT22;12448;45.532;5.290;2023-04-15T08:37:20;9.20;93.20
24326;DHT22;12448;45.532;5.290;2023-04-15T08:39:47;9.50;93.00
24326;DHT22;12448;45.532;5.290;2023-04-15T08:42:16;9.30;93.20
24326;DHT22;12448;45.532;5.290;2023-04-15T08:44:54;9.20;93.30
24326;DHT22;12448;45.532;5.290;2023-04-15T08:47:20;9.00;93.50
24326;DHT22;12448;45.532;5.290;2023-04-15T08:49:50;9.30;93.40
24326;DHT22;12448;45.532;5.290;2023-04-15T08:52:20;9.20;93.50
24326;DHT22;12448;45.532;5.290;2023-04-15T08:54:47;9.20;93.00
24326;DHT22;12448;45.532;5.290;2023-04-15T08:57:13;9.40;93.00
24326;DHT22;12448;45.532;5.290;2023-04-15T08:59:40;9.40;92.40
24326;DHT22;12448;45.532;5.290;2023-04-15T09:02:07;9.10;92.40
24326;DHT22;12448;45.532;5.290;2023-04-15T09:04:33;9.40;92.50
24326;DHT22;12448;45.532;5.290;2023-04-15T09:06:59;9.30;92.80
24326;DHT22;12448;45.532;5.290;2023-04-15T09:09:29;9.40;92.00
24326;DHT22;12448;45.532;5.290;2023-04-15T09:11:54;10.00;92.10
24326;DHT22;12448;45.532;5.290;2023-04-15T09:14:21;9.60;91.60
24326;DHT22;12448;45.532;5.290;2023-04-15T09:16:59;9.30;91.80
24326;DHT22;12448;45.532;5.290;2023-04-15T09:19:25;9.30;92.00
24326;DHT22;12448;45.532;5.290;2023-04-15T09:21:56;9.20;92.00
24326;DHT22;12448;45.532;5.290;2023-04-15T09:24:22;9.10;92.70
24326;DHT22;12448;45.532;5.290;2023-04-15T09:26:54;9.10;93.10
24326;DHT22;12448;45.532;5.290;2023-04-15T09:29:28;9.60;92.90
24326;DHT22;12448;45.532;5.290;2023-04-15T09:31:53;9.20;92.70
24326;DHT22;12448;45.532;5.290;2023-04-15T09:34:19;9.20;92.80
24326;DHT22;12448;45.532;5.290;2023-04-15T09:36:56;9.70;92.60
24326;DHT22;12448;45.532;5.290;2023-04-15T09:39:22;9.20;92.50
24326;DHT22;12448;45.532;5.290;2023-04-15T09:42:04;9.70;92.30
24326;DHT22;12448;45.532;5.290;2023-04-15T09:44:31;9.30;91.90
24326;DHT22;12448;45.532;5.290;2023-04-15T09:46:57;9.80;92.00
24326;DHT22;12448;45.532;5.290;2023-04-15T09:49:29;9.40;92.10
24326;DHT22;12448;45.532;5.290;2023-04-15T09:52:02;9.40;91.90
24326;DHT22;12448;45.532;5.290;2023-04-15T09:54:37;9.50;91.70
24326;DHT22;12448;45.532;5.290;2023-04-15T09:57:09;9.90;91.50
24326;DHT22;12448;45.532;5.290;2023-04-15T09:59:36;9.60;91.40
24326;DHT22;12448;45.532;5.290;2023-04-15T10:02:05;9.60;91.40
24326;DHT22;12448;45.532;5.290;2023-04-15T10:04:35;9.60;91.40
24326;DHT22;12448;45.532;5.290;2023-04-15T10:07:14;9.70;91.50
24326;DHT22;12448;45.532;5.290;2023-04-15T10:09:45;9.70;91.20
24326;DHT22;12448;45.532;5.290;2023-04-15T10:12:11;9.80;91.40
24326;DHT22;12448;45.532;5.290;2023-04-15T10:14:38;9.80;91.20
24326;DHT22;12448;45.532;5.290;2023-04-15T10:17:05;9.80;91.10
24326;DHT22;12448;45.532;5.290;2023-04-15T10:19:36;9.80;91.10
24326;DHT22;12448;45.532;5.290;2023-04-15T10:22:02;10.30;91.70
24326;DHT22;12448;45.532;5.290;2023-04-15T10:24:32;9.80;91.70
24326;DHT22;12448;45.532;5.290;2023-04-15T10:26:59;9.70;92.00
24326;DHT22;12448;45.532;5.290;2023-04-15T10:29:25;10.10;92.30
24326;DHT22;12448;45.532;5.290;2023-04-15T10:31:54;9.60;92.50
24326;DHT22;12448;45.532;5.290;2023-04-15T10:34:22;9.90;92.90
24326;DHT22;12448;45.532;5.290;2023-04-15T10:36:48;9.60;92.60
24326;DHT22;12448;45.532;5.290;2023-04-15T10:42:18;9.30;93.60
24326;DHT22;12448;45.532;5.290;2023-04-15T10:44:47;9.30;93.80
24326;DHT22;12448;45.532;5.290;2023-04-15T10:47:15;9.70;94.60
24326;DHT22;12448;45.532;5.290;2023-04-15T10:49:51;9.20;94.60
24326;DHT22;12448;45.532;5.290;2023-04-15T10:52:21;8.60;94.90
24326;DHT22;12448;45.532;5.290;2023-04-15T10:54:47;8.70;95.10
24326;DHT22;12448;45.532;5.290;2023-04-15T10:57:15;8.80;95.80
24326;DHT22;12448;45.532;5.290;2023-04-15T11:02:50;8.40;96.70
24326;DHT22;12448;45.532;5.290;2023-04-15T11:05:17;8.50;97.00
24326;DHT22;12448;45.532;5.290;2023-04-15T11:12:52;9.00;96.90
24326;DHT22;12448;45.532;5.290;2023-04-15T11:15:35;9.00;97.30
24326;DHT22;12448;45.532;5.290;2023-04-15T11:18:20;8.80;96.70
24326;DHT22;12448;45.532;5.290;2023-04-15T11:20:54;8.80;96.30
24326;DHT22;12448;45.532;5.290;2023-04-15T11:23:36;8.60;95.30
24326;DHT22;12448;45.532;5.290;2023-04-15T11:26:03;8.90;95.70
24326;DHT22;12448;45.532;5.290;2023-04-15T11:28:31;8.50;95.80
24326;DHT22;12448;45.532;5.290;2023-04-15T11:30:58;8.50;96.00
24326;DHT22;12448;45.532;5.290;2023-04-15T11:33:30;9.10;95.40
24326;DHT22;12448;45.532;5.290;2023-04-15T11:35:55;8.90;95.50
24326;DHT22;12448;45.532;5.290;2023-04-15T11:38:21;8.90;95.40
24326;DHT22;12448;45.532;5.290;2023-04-15T11:40:47;8.70;95.40
24326;DHT22;12448;45.532;5.290;2023-04-15T11:43:16;9.00;95.20
24326;DHT22;12448;45.532;5.290;2023-04-15T11:45:52;8.80;95.00
24326;DHT22;12448;45.532;5.290;2023-04-15T11:48:20;9.40;94.40
24326;DHT22;12448;45.532;5.290;2023-04-15T11:51:01;9.30;94.10
24326;DHT22;12448;45.532;5.290;2023-04-15T11:53:47;9.30;94.40
24326;DHT22;12448;45.532;5.290;2023-04-15T11:56:24;8.90;94.60
24326;DHT22;12448;45.532;5.290;2023-04-15T11:58:57;9.30;94.60
24326;DHT22;12448;45.532;5.290;2023-04-15T12:01:37;8.90;94.70
24326;DHT22;12448;45.532;5.290;2023-04-15T12:04:15;8.70;94.90
24326;DHT22;12448;45.532;5.290;2023-04-15T12:06:44;8.90;94.60
24326;DHT22;12448;45.532;5.290;2023-04-15T12:09:13;8.90;94.80
24326;DHT22;12448;45.532;5.290;2023-04-15T12:11:50;8.80;94.80
24326;DHT22;12448;45.532;5.290;2023-04-15T12:14:21;9.20;95.00
24326;DHT22;12448;45.532;5.290;2023-04-15T12:16:51;8.90;94.70
24326;DHT22;12448;45.532;5.290;2023-04-15T12:19:23;8.80;94.40
24326;DHT22;12448;45.532;5.290;2023-04-15T12:21:50;8.70;94.60
24326;DHT22;12448;45.532;5.290;2023-04-15T12:24:20;8.60;95.40
24326;DHT22;12448;45.532;5.290;2023-04-15T12:26:51;8.60;95.70
24326;DHT22;12448;45.532;5.290;2023-04-15T12:29:18;8.80;95.80
24326;DHT22;12448;45.532;5.290;2023-04-15T12:31:49;8.60;96.50
24326;DHT22;12448;45.532;5.290;2023-04-15T12:34:16;9.20;96.90
24326;DHT22;12448;45.532;5.290;2023-04-15T12:36:42;9.00;96.70
24326;DHT22;12448;45.532;5.290;2023-04-15T12:39:08;8.80;96.10
24326;DHT22;12448;45.532;5.290;2023-04-15T12:41:33;9.00;96.40
24326;DHT22;12448;45.532;5.290;2023-04-15T12:43:59;9.40;96.30
24326;DHT22;12448;45.532;5.290;2023-04-15T12:46:25;9.20;96.70
24326;DHT22;12448;45.532;5.290;2023-04-15T12:48:51;8.90;96.20
24326;DHT22;12448;45.532;5.290;2023-04-15T12:51:18;9.10;96.40
24326;DHT22;12448;45.532;5.290;2023-04-15T12:53:43;8.70;96.30
24326;DHT22;12448;45.532;5.290;2023-04-15T12:56:09;8.70;96.50
24326;DHT22;12448;45.532;5.290;2023-04-15T12:58:35;8.60;96.60
24326;DHT22;12448;45.532;5.290;2023-04-15T13:01:01;9.20;97.10
24326;DHT22;12448;45.532;5.290;2023-04-15T13:03:26;8.80;96.60
24326;DHT22;12448;45.532;5.290;2023-04-15T13:05:52;8.90;96.50
24326;DHT22;12448;45.532;5.290;2023-04-15T13:08:18;8.60;96.80
24326;DHT22;12448;45.532;5.290;2023-04-15T13:10:43;8.30;96.80
24326;DHT22;12448;45.532;5.290;2023-04-15T13:13:09;8.30;97.20
24326;DHT22;12448;45.532;5.290;2023-04-15T13:15:35;8.40;97.40
24326;DHT22;12448;45.532;5.290;2023-04-15T13:18:00;8.70;96.80
24326;DHT22;12448;45.532;5.290;2023-04-15T13:20:26;8.60;96.70
24326;DHT22;12448;45.532;5.290;2023-04-15T13:22:52;8.30;97.00
24326;DHT22;12448;45.532;5.290;2023-04-15T13:25:18;8.70;97.10
24326;DHT22;12448;45.532;5.290;2023-04-15T13:27:44;8.30;97.30
24326;DHT22;12448;45.532;5.290;2023-04-15T13:30:11;8.30;97.10
24326;DHT22;12448;45.532;5.290;2023-04-15T13:32:36;8.40;97.00
24326;DHT22;12448;45.532;5.290;2023-04-15T13:35:02;8.90;96.90
24326;DHT22;12448;45.532;5.290;2023-04-15T13:37:29;8.40;97.00
24326;DHT22;12448;45.532;5.290;2023-04-15T13:39:55;8.70;97.40
24326;DHT22;12448;45.532;5.290;2023-04-15T13:42:22;8.60;97.20
24326;DHT22;12448;45.532;5.290;2023-04-15T13:44:49;9.20;97.10
24326;DHT22;12448;45.532;5.290;2023-04-15T13:47:16;8.70;96.90
24326;DHT22;12448;45.532;5.290;2023-04-15T13:49:42;8.90;97.10
24326;DHT22;12448;45.532;5.290;2023-04-15T13:52:08;9.30;97.10
24326;DHT22;12448;45.532;5.290;2023-04-15T13:54:33;8.70;97.30
24326;DHT22;12448;45.532;5.290;2023-04-15T13:56:59;8.70;97.30
24326;DHT22;12448;45.532;5.290;2023-04-15T13:59:26;8.60;97.40
24326;DHT22;12448;45.532;5.290;2023-04-15T14:01:52;8.60;97.30
24326;DHT22;12448;45.532;5.290;2023-04-15T14:04:17;8.20;97.10
24326;DHT22;12448;45.532;5.290;2023-04-15T14:06:43;8.60;97.50
24326;DHT22;12448;45.532;5.290;2023-04-15T14:09:09;8.70;97.60
24326;DHT22;12448;45.532;5.290;2023-04-15T14:11:37;8.70;97.40
24326;DHT22;12448;45.532;5.290;2023-04-15T14:14:03;8.70;97.30
24326;DHT22;12448;45.532;5.290;2023-04-15T14:16:28;8.80;97.30
24326;DHT22;12448;45.532;5.290;2023-04-15T14:18:54;8.50;96.90
24326;DHT22;12448;45.532;5.290;2023-04-15T14:21:20;8.50;96.50
24326;DHT22;12448;45.532;5.290;2023-04-15T14:23:45;9.00;96.80
24326;DHT22;12448;45.532;5.290;2023-04-15T14:26:11;8.40;96.30
24326;DHT22;12448;45.532;5.290;2023-04-15T14:28:38;8.40;96.60
24326;DHT22;12448;45.532;5.290;2023-04-15T14:31:09;8.90;96.40
24326;DHT22;12448;45.532;5.290;2023-04-15T14:33:35;8.30;96.30
24326;DHT22;12448;45.532;5.290;2023-04-15T14:36:01;8.20;96.10
24326;DHT22;12448;45.532;5.290;2023-04-15T14:38:27;8.30;96.30
24326;DHT22;12448;45.532;5.290;2023-04-15T14:40:52;8.30;96.00
24326;DHT22;12448;45.532;5.290;2023-04-15T14:43:19;8.30;96.10
24326;DHT22;12448;45.532;5.290;2023-04-15T14:45:44;8.40;96.00
24326;DHT22;12448;45.532;5.290;2023-04-15T14:48:10;9.00;95.80
24326;DHT22;12448;45.532;5.290;2023-04-15T14:50:37;8.40;95.70
24326;DHT22;12448;45.532;5.290;2023-04-15T14:53:03;8.60;95.80
24326;DHT22;12448;45.532;5.290;2023-04-15T14:55:29;8.40;95.50
24326;DHT22;12448;45.532;5.290;2023-04-15T14:57:54;8.60;95.80
24326;DHT22;12448;45.532;5.290;2023-04-15T15:00:20;8.40;95.70
24326;DHT22;12448;45.532;5.290;2023-04-15T15:02:46;8.50;95.80
24326;DHT22;12448;45.532;5.290;2023-04-15T15:05:14;8.50;95.80
24326;DHT22;12448;45.532;5.290;2023-04-15T15:07:42;8.50;95.80
24326;DHT22;12448;45.532;5.290;2023-04-15T15:10:08;8.90;95.90
24326;DHT22;12448;45.532;5.290;2023-04-15T15:12:34;8.50;95.60
24326;DHT22;12448;45.532;5.290;2023-04-15T15:15:03;8.40;96.00
24326;DHT22;12448;45.532;5.290;2023-04-15T15:17:29;8.40;96.20
24326;DHT22;12448;45.532;5.290;2023-04-15T15:19:55;8.80;96.50
24326;DHT22;12448;45.532;5.290;2023-04-15T15:22:21;8.80;96.60
24326;DHT22;12448;45.532;5.290;2023-04-15T15:24:48;8.50;96.50
24326;DHT22;12448;45.532;5.290;2023-04-15T15:27:23;9.10;96.80
24326;DHT22;12448;45.532;5.290;2023-04-15T15:29:49;8.90;97.20
24326;DHT22;12448;45.532;5.290;2023-04-15T15:32:15;8.40;96.80
24326;DHT22;12448;45.532;5.290;2023-04-15T15:34:43;8.40;97.20
24326;DHT22;12448;45.532;5.290;2023-04-15T15:37:09;8.40;97.10
24326;DHT22;12448;45.532;5.290;2023-04-15T15:39:35;8.40;97.20
24326;DHT22;12448;45.532;5.290;2023-04-15T15:42:01;8.50;97.20
24326;DHT22;12448;45.532;5.290;2023-04-15T15:44:26;8.30;97.30
24326;DHT22;12448;45.532;5.290;2023-04-15T15:46:52;8.30;97.30
24326;DHT22;12448;45.532;5.290;2023-04-15T15:49:18;8.30;97.30
24326;DHT22;12448;45.532;5.290;2023-04-15T15:51:44;8.30;97.40
24326;DHT22;12448;45.532;5.290;2023-04-15T15:54:11;8.60;97.40
24326;DHT22;12448;45.532;5.290;2023-04-15T15:56:36;8.50;97.30